createdAt,value
2019-04-01T00:01:33.583Z,4.37
2019-04-01T00:04:04.863Z,4.40
2019-04-01T00:06:36.301Z,4.43
2019-04-01T00:09:07.489Z,4.38
2019-04-01T00:11:38.696Z,4.32
2019-04-01T00:14:09.916Z,4.21
2019-04-01T00:16:41.183Z,4.11
2019-04-01T00:19:12.521Z,4.01
2019-04-01T00:21:44.671Z,3.95
2019-04-01T00:24:16.405Z,3.89
2019-04-01T00:26:47.713Z,3.83
2019-04-01T00:29:19.134Z,3.80
2019-04-01T00:31:50.423Z,3.79
2019-04-01T00:34:21.630Z,3.75
2019-04-01T00:36:52.839Z,3.75
2019-04-01T00:39:24.248Z,3.74
2019-04-01T00:42:13.589Z,3.76
2019-04-01T00:44:44.988Z,3.74
2019-04-01T00:47:16.344Z,3.72
2019-04-01T00:49:47.684Z,3.69
2019-04-01T00:52:19.974Z,3.65
2019-04-01T00:54:51.327Z,3.61
2019-04-01T00:57:22.515Z,3.56
2019-04-01T00:59:53.923Z,3.50
2019-04-01T01:02:25.316Z,3.44
2019-04-01T01:04:56.719Z,3.38
2019-04-01T01:07:28.049Z,3.37
2019-04-01T01:09:59.395Z,3.38
2019-04-01T01:12:30.748Z,3.38
2019-04-01T01:15:02.130Z,3.37
2019-04-01T01:17:33.412Z,3.35
2019-04-01T01:20:06.649Z,3.29
2019-04-01T01:22:37.916Z,3.26
2019-04-01T01:25:09.203Z,3.19
2019-04-01T01:27:40.430Z,3.09
2019-04-01T01:30:11.843Z,2.94
2019-04-01T01:32:43.082Z,2.81
2019-04-01T01:35:14.331Z,2.79
2019-04-01T01:37:45.575Z,2.70
2019-04-01T01:40:16.853Z,2.69
2019-04-01T01:42:48.143Z,2.65
2019-04-01T01:45:19.500Z,2.71
2019-04-01T01:47:50.717Z,2.64
2019-04-01T01:50:21.995Z,2.58
2019-04-01T01:52:53.347Z,2.52
2019-04-01T01:55:24.699Z,2.48
2019-04-01T01:57:55.937Z,2.48
2019-04-01T02:00:28.324Z,2.50
2019-04-01T02:02:59.616Z,2.57
2019-04-01T02:05:30.965Z,2.99
2019-04-01T02:08:02.186Z,3.17
2019-04-01T02:10:33.532Z,3.17
2019-04-01T02:13:04.767Z,3.20
2019-04-01T02:15:36.100Z,3.48
2019-04-01T02:18:07.395Z,3.47
2019-04-01T02:20:38.692Z,3.43
2019-04-01T02:23:10.049Z,3.48
2019-04-01T02:25:41.350Z,3.39
2019-04-01T02:28:12.694Z,3.34
2019-04-01T02:30:43.936Z,3.28
2019-04-01T02:33:15.384Z,3.30
2019-04-01T02:35:46.602Z,3.31
2019-04-01T02:38:17.813Z,3.17
2019-04-01T02:40:48.989Z,3.02
2019-04-01T02:43:20.330Z,2.81
2019-04-01T02:45:51.779Z,2.66
2019-04-01T02:48:22.989Z,2.47
2019-04-01T02:50:54.525Z,2.40
2019-04-01T02:53:25.898Z,2.32
2019-04-01T02:55:57.158Z,2.31
2019-04-01T02:58:28.419Z,2.28
2019-04-01T03:00:59.818Z,2.20
2019-04-01T03:03:31.154Z,2.15
2019-04-01T03:06:02.456Z,2.11
2019-04-01T03:08:33.769Z,2.12
2019-04-01T03:11:09.840Z,2.12
2019-04-01T03:13:38.403Z,2.15
2019-04-01T03:16:09.784Z,2.27
2019-04-01T03:18:41.869Z,2.25
2019-04-01T03:21:13.125Z,2.20
2019-04-01T03:23:44.499Z,2.19
2019-04-01T03:26:15.723Z,2.13
2019-04-01T03:28:47.152Z,2.18
2019-04-01T03:31:18.528Z,2.20
2019-04-01T03:33:50.145Z,2.20
2019-04-01T03:36:21.513Z,2.20
2019-04-01T03:38:52.833Z,2.29
2019-04-01T03:41:24.185Z,2.69
2019-04-01T03:43:55.350Z,3.12
2019-04-01T03:46:26.738Z,3.60
2019-04-01T03:48:57.958Z,4.18
2019-04-01T03:51:29.315Z,4.67
2019-04-01T03:54:00.602Z,5.07
2019-04-01T03:56:32.028Z,5.46
2019-04-01T03:59:03.406Z,5.77
2019-04-01T04:01:34.676Z,6.07
2019-04-01T04:04:06.029Z,6.47
2019-04-01T04:06:37.369Z,6.92
2019-04-01T04:09:08.569Z,7.27
2019-04-01T04:11:39.755Z,7.46
2019-04-01T04:14:11.019Z,7.95
2019-04-01T04:16:42.390Z,8.41
2019-04-01T04:19:13.746Z,9.41
2019-04-01T04:21:45.042Z,9.75
2019-04-01T04:24:16.336Z,10.10
2019-04-01T04:26:47.633Z,10.55
2019-04-01T04:29:18.947Z,10.92
2019-04-01T04:31:50.237Z,11.32
2019-04-01T04:34:21.463Z,11.72
2019-04-01T04:36:52.767Z,11.59
2019-04-01T04:39:24.050Z,12.25
2019-04-01T04:41:55.522Z,12.45
2019-04-01T04:44:26.782Z,13.10
2019-04-01T04:46:58.086Z,14.29
2019-04-01T04:49:29.547Z,14.93
2019-04-01T04:52:00.819Z,15.37
2019-04-01T04:54:33.928Z,15.49
2019-04-01T04:57:05.331Z,14.83
2019-04-01T04:59:36.636Z,15.19
2019-04-01T05:02:08.030Z,15.20
2019-04-01T05:04:39.385Z,15.40
2019-04-01T05:07:10.668Z,15.83
2019-04-01T05:09:41.934Z,16.17
2019-04-01T05:12:13.307Z,16.46
2019-04-01T05:14:44.613Z,17.29
2019-04-01T05:17:16.039Z,17.65
2019-04-01T05:19:47.558Z,18.36
2019-04-01T05:22:18.897Z,18.55
2019-04-01T05:24:50.142Z,18.50
2019-04-01T05:27:21.594Z,18.82
2019-04-01T05:29:54.256Z,19.33
2019-04-01T05:32:26.323Z,19.77
2019-04-01T05:34:57.652Z,20.32
2019-04-01T05:37:28.917Z,20.23
2019-04-01T05:40:00.383Z,21.29
2019-04-01T05:42:31.758Z,21.12
2019-04-01T05:45:03.073Z,20.81
2019-04-01T05:47:36.300Z,20.96
2019-04-01T05:50:07.804Z,21.64
2019-04-01T05:52:39.328Z,22.14
2019-04-01T05:55:10.763Z,21.98
2019-04-01T05:57:42.111Z,20.59
2019-04-01T06:00:15.168Z,19.96
2019-04-01T06:02:46.556Z,20.23
2019-04-01T06:05:17.979Z,20.55
2019-04-01T06:07:49.345Z,20.79
2019-04-01T06:10:20.700Z,20.75
2019-04-01T06:12:52.573Z,21.46
2019-04-01T06:15:23.891Z,21.57
2019-04-01T06:17:55.336Z,21.88
2019-04-01T06:20:26.612Z,22.18
2019-04-01T06:22:58.389Z,22.28
2019-04-01T06:25:30.124Z,22.76
2019-04-01T06:28:01.541Z,23.15
2019-04-01T06:30:32.921Z,23.93
2019-04-01T06:33:04.212Z,24.28
2019-04-01T06:35:35.665Z,24.67
2019-04-01T06:38:06.995Z,25.33
2019-04-01T06:40:39.467Z,25.12
2019-04-01T06:43:10.896Z,26.01
2019-04-01T06:45:43.880Z,26.24
2019-04-01T06:48:15.296Z,26.55
2019-04-01T06:50:46.731Z,26.77
2019-04-01T06:53:19.736Z,26.73
2019-04-01T06:55:50.976Z,27.18
2019-04-01T06:58:22.351Z,27.08
2019-04-01T07:00:53.676Z,27.80
2019-04-01T07:03:26.090Z,27.97
2019-04-01T07:05:57.430Z,28.10
2019-04-01T07:08:28.816Z,28.51
2019-04-01T07:11:01.024Z,30.26
2019-04-01T07:13:32.518Z,29.08
2019-04-01T07:16:15.286Z,29.56
2019-04-01T07:18:38.206Z,29.90
2019-04-01T07:21:09.587Z,29.22
2019-04-01T07:23:41.081Z,27.91
2019-04-01T07:26:13.266Z,28.38
2019-04-01T07:28:45.645Z,29.16
2019-04-01T07:31:17.022Z,28.56
2019-04-01T07:33:48.526Z,28.37
2019-04-01T07:36:21.445Z,29.02
2019-04-01T07:38:52.894Z,29.25
2019-04-01T07:41:24.229Z,29.02
2019-04-01T07:43:55.512Z,29.56
2019-04-01T07:46:26.852Z,29.97
2019-04-01T07:48:58.204Z,30.46
2019-04-01T07:51:29.739Z,30.02
2019-04-01T07:54:01.163Z,30.29
2019-04-01T07:56:32.551Z,31.23
2019-04-01T07:59:04.843Z,29.63
2019-04-01T08:01:36.265Z,29.58
2019-04-01T08:04:07.650Z,29.67
2019-04-01T08:06:39.499Z,28.89
2019-04-01T08:09:11.885Z,29.20
2019-04-01T08:11:43.195Z,29.65
2019-04-01T08:14:16.101Z,30.37
2019-04-01T08:16:47.480Z,30.52
2019-04-01T08:19:18.901Z,29.91
2019-04-01T08:21:52.316Z,29.12
2019-04-01T08:24:23.370Z,28.57
2019-04-01T08:26:54.704Z,29.18
2019-04-01T08:29:30.487Z,30.02
2019-04-01T08:32:00.372Z,29.41
2019-04-01T08:34:31.638Z,30.21
2019-04-01T08:37:04.000Z,30.76
2019-04-01T08:39:38.243Z,30.12
2019-04-01T08:42:09.717Z,28.78
2019-04-01T08:44:44.468Z,28.04
2019-04-01T08:47:20.196Z,28.82
2019-04-01T08:49:52.548Z,29.56
2019-04-01T08:52:27.406Z,28.86
2019-04-01T08:55:00.537Z,26.64
2019-04-01T08:57:33.470Z,25.18
2019-04-01T09:00:21.950Z,24.83
2019-04-01T09:02:56.703Z,25.05
2019-04-01T09:05:33.844Z,25.64
2019-04-01T09:08:10.014Z,25.58
2019-04-01T09:10:42.417Z,26.00
2019-04-01T09:13:14.034Z,26.30
2019-04-01T09:15:45.298Z,26.16
2019-04-01T09:18:16.803Z,25.49
2019-04-01T09:20:55.363Z,25.30
2019-04-01T09:23:24.545Z,25.54
2019-04-01T09:25:57.876Z,23.99
2019-04-01T09:28:31.886Z,23.27
2019-04-01T09:31:02.934Z,23.17
2019-04-01T09:33:38.751Z,22.62
2019-04-01T09:36:12.441Z,22.34
2019-04-01T09:38:44.026Z,22.63
2019-04-01T09:41:15.446Z,22.69
2019-04-01T09:43:47.778Z,22.97
2019-04-01T09:46:20.959Z,22.90
2019-04-01T09:48:55.297Z,22.74
2019-04-01T09:51:47.509Z,22.66
2019-04-01T09:54:05.821Z,22.60
2019-04-01T09:56:37.490Z,21.86
2019-04-01T09:59:15.013Z,21.63
2019-04-01T10:01:54.556Z,21.33
2019-04-01T10:04:25.832Z,21.24
2019-04-01T10:06:59.774Z,21.16
2019-04-01T10:09:41.946Z,20.72
2019-04-01T10:12:15.614Z,20.36
2019-04-01T10:14:49.910Z,20.30
2019-04-01T10:17:24.938Z,20.59
2019-04-01T10:19:56.022Z,20.83
2019-04-01T10:22:27.196Z,20.63
2019-04-01T10:24:59.923Z,20.40
2019-04-01T10:27:31.199Z,20.41
2019-04-01T10:30:02.660Z,20.30
2019-04-01T10:32:34.096Z,20.39
2019-04-01T10:35:07.322Z,20.75
2019-04-01T10:37:38.708Z,20.79
2019-04-01T10:40:09.971Z,20.71
2019-04-01T10:42:41.388Z,20.47
2019-04-01T10:45:12.681Z,20.29
2019-04-01T10:47:44.044Z,20.40
2019-04-01T10:50:15.493Z,20.34
2019-04-01T10:52:47.691Z,20.69
2019-04-01T10:55:19.043Z,20.91
2019-04-01T10:57:53.706Z,21.13
2019-04-01T11:00:23.318Z,20.93
2019-04-01T11:02:54.660Z,20.97
2019-04-01T11:05:26.098Z,21.25
2019-04-01T11:07:57.489Z,21.07
2019-04-01T11:10:28.838Z,21.25
2019-04-01T11:13:00.168Z,21.31
2019-04-01T11:15:32.712Z,21.18
2019-04-01T11:18:04.021Z,21.26
2019-04-01T11:20:35.279Z,21.30
2019-04-01T11:23:07.688Z,21.17
2019-04-01T11:25:40.987Z,21.22
2019-04-01T11:28:12.378Z,21.40
2019-04-01T11:30:44.677Z,21.59
2019-04-01T11:33:16.235Z,21.53
2019-04-01T11:35:47.659Z,21.57
2019-04-01T11:38:19.002Z,21.29
2019-04-01T11:40:50.411Z,21.33
2019-04-01T11:43:23.410Z,21.34
2019-04-01T11:45:54.709Z,21.19
2019-04-01T11:48:25.990Z,21.34
2019-04-01T11:50:58.275Z,21.38
2019-04-01T11:53:29.870Z,21.20
2019-04-01T11:56:02.514Z,21.24
2019-04-01T11:58:33.793Z,21.07
2019-04-01T12:01:05.007Z,20.79
2019-04-01T12:03:36.413Z,20.62
2019-04-01T12:06:07.698Z,20.75
2019-04-01T12:08:39.016Z,20.87
2019-04-01T12:11:10.408Z,20.84
2019-04-01T12:13:41.826Z,21.10
2019-04-01T12:16:13.160Z,21.00
2019-04-01T12:18:44.806Z,20.77
2019-04-01T12:21:16.457Z,20.53
2019-04-01T12:23:47.812Z,20.75
2019-04-01T12:26:19.050Z,20.87
2019-04-01T12:28:50.386Z,20.84
2019-04-01T12:31:22.010Z,20.60
2019-04-01T12:33:53.310Z,20.80
2019-04-01T12:36:27.657Z,20.69
2019-04-01T12:38:59.036Z,20.62
2019-04-01T12:41:30.254Z,20.42
2019-04-01T12:44:01.791Z,20.42
2019-04-01T12:46:33.065Z,20.48
2019-04-01T12:49:04.551Z,20.43
2019-04-01T12:51:35.912Z,20.33
2019-04-01T12:54:07.937Z,20.13
2019-04-01T12:56:39.355Z,20.28
2019-04-01T12:59:10.729Z,20.60
2019-04-01T13:01:42.125Z,20.82
2019-04-01T13:04:13.372Z,20.98
2019-04-01T13:06:47.906Z,21.07
2019-04-01T13:09:19.330Z,20.91
2019-04-01T13:11:51.828Z,20.65
2019-04-01T13:14:23.148Z,20.53
2019-04-01T13:16:54.611Z,20.37
2019-04-01T13:19:25.985Z,20.15
2019-04-01T13:21:57.885Z,19.93
2019-04-01T13:24:29.205Z,20.10
2019-04-01T13:27:01.122Z,19.93
2019-04-01T13:29:32.553Z,20.12
2019-04-01T13:32:03.949Z,20.40
2019-04-01T13:34:35.294Z,20.60
2019-04-01T13:37:06.539Z,20.61
2019-04-01T13:39:38.037Z,20.64
2019-04-01T13:42:09.349Z,20.56
2019-04-01T13:44:40.807Z,20.19
2019-04-01T13:47:12.085Z,19.97
2019-04-01T13:49:43.710Z,20.02
2019-04-01T13:52:14.994Z,20.25
2019-04-01T13:54:50.238Z,20.38
2019-04-01T13:57:21.648Z,20.29
2019-04-01T13:59:53.019Z,20.14
2019-04-01T14:02:26.609Z,20.01
2019-04-01T14:05:00.164Z,19.57
2019-04-01T14:07:31.528Z,19.40
2019-04-01T14:10:03.801Z,19.30
2019-04-01T14:12:35.895Z,19.30
2019-04-01T14:15:07.303Z,19.38
2019-04-01T14:17:38.817Z,19.41
2019-04-01T14:24:05.071Z,19.23
2019-04-01T14:26:36.349Z,19.13
2019-04-01T14:29:07.660Z,19.08
2019-04-01T14:31:40.476Z,19.03
2019-04-01T14:34:13.807Z,18.95
2019-04-01T14:36:44.781Z,18.85
2019-04-01T14:39:16.217Z,18.69
2019-04-01T14:41:47.590Z,18.61
2019-04-01T14:44:19.085Z,18.52
2019-04-01T14:46:50.458Z,18.44
2019-04-01T14:49:21.911Z,18.35
2019-04-01T14:51:53.242Z,18.28
2019-04-01T14:54:24.799Z,18.18
2019-04-01T14:56:56.978Z,18.10
2019-04-01T14:59:28.458Z,18.03
2019-04-01T15:02:03.827Z,18.01
2019-04-01T15:04:37.770Z,17.91
2019-04-01T15:07:09.266Z,17.85
2019-04-01T15:09:40.835Z,17.75
2019-04-01T15:12:12.207Z,17.67
2019-04-01T15:14:43.487Z,17.60
2019-04-01T15:17:17.341Z,17.53
2019-04-01T15:19:48.908Z,17.48
2019-04-01T15:22:20.299Z,17.43
2019-04-01T15:24:51.632Z,17.37
2019-04-01T15:27:22.985Z,17.30
2019-04-01T15:29:55.893Z,17.22
2019-04-01T15:32:27.182Z,17.11
2019-04-01T15:34:58.439Z,17.02
2019-04-01T15:37:32.148Z,16.91
2019-04-01T15:40:02.878Z,16.76
2019-04-01T15:42:35.058Z,16.66
2019-04-01T15:45:07.122Z,16.53
2019-04-01T15:47:41.484Z,16.37
2019-04-01T15:50:27.290Z,16.27
2019-04-01T15:52:46.218Z,16.13
2019-04-01T15:55:19.322Z,15.99
2019-04-01T15:57:52.144Z,15.87
2019-04-01T16:00:43.319Z,15.77
2019-04-01T16:03:15.357Z,15.62
2019-04-01T16:05:46.714Z,15.51
2019-04-01T16:08:18.266Z,15.32
2019-04-01T16:10:51.144Z,15.19
2019-04-01T16:13:25.656Z,15.09
2019-04-01T16:15:57.029Z,15.00
2019-04-01T16:18:31.164Z,14.89
2019-04-01T16:21:07.626Z,14.80
2019-04-01T16:23:40.992Z,14.68
2019-04-01T16:26:14.046Z,14.55
2019-04-01T16:28:48.590Z,14.48
2019-04-01T16:31:26.223Z,14.41
2019-04-01T16:34:05.065Z,14.33
2019-04-01T16:36:44.454Z,14.21
2019-04-01T16:39:18.614Z,14.11
2019-04-01T16:41:54.005Z,14.04
2019-04-01T16:44:29.459Z,13.96
2019-04-01T16:47:05.117Z,13.88
2019-04-01T16:49:38.017Z,13.78
2019-04-01T16:52:15.483Z,13.71
2019-04-01T16:54:49.113Z,13.65
2019-04-01T16:57:23.012Z,13.55
2019-04-01T16:59:59.138Z,13.47
2019-04-01T17:02:32.981Z,13.37
2019-04-01T17:05:06.027Z,13.31
2019-04-01T17:07:39.010Z,13.23
2019-04-01T17:10:11.425Z,13.13
2019-04-01T17:12:44.922Z,13.08
2019-04-01T17:15:16.368Z,13.01
2019-04-01T17:17:51.614Z,12.98
2019-04-01T17:20:23.631Z,12.90
2019-04-01T17:22:55.011Z,12.85
2019-04-01T17:25:27.767Z,12.80
2019-04-01T17:27:59.103Z,12.74
2019-04-01T17:30:30.379Z,12.63
2019-04-01T17:33:02.140Z,12.58
2019-04-01T17:35:33.520Z,12.51
2019-04-01T17:38:08.190Z,12.46
2019-04-01T17:40:41.879Z,12.29
2019-04-01T17:43:16.230Z,12.29
2019-04-01T17:45:48.490Z,12.25
2019-04-01T17:48:19.974Z,12.12
2019-04-01T17:50:53.544Z,12.12
2019-04-01T17:53:31.540Z,12.00
2019-04-01T17:56:05.994Z,12.00
2019-04-01T17:58:37.364Z,11.93
2019-04-01T18:01:10.405Z,11.87
2019-04-01T18:03:41.754Z,11.83
2019-04-01T18:06:12.970Z,11.76
2019-04-01T18:08:45.355Z,11.73
2019-04-01T18:11:16.569Z,11.70
2019-04-01T18:13:50.139Z,11.61
2019-04-01T18:16:25.451Z,11.57
2019-04-01T18:18:59.293Z,11.54
2019-04-01T18:21:32.103Z,11.54
2019-04-01T18:24:04.262Z,11.51
2019-04-01T18:26:35.561Z,11.48
2019-04-01T18:29:06.928Z,11.46
2019-04-01T18:31:38.913Z,11.43
2019-04-01T18:34:11.484Z,11.37
2019-04-01T18:36:43.874Z,11.31
2019-04-01T18:39:15.642Z,11.25
2019-04-01T18:41:47.359Z,11.22
2019-04-01T18:44:18.964Z,11.17
2019-04-01T18:46:50.468Z,11.10
2019-04-01T18:49:22.346Z,11.04
2019-04-01T18:51:55.363Z,10.94
2019-04-01T18:54:26.767Z,10.90
2019-04-01T18:56:58.362Z,10.83
2019-04-01T18:59:31.472Z,10.74
2019-04-01T19:02:02.768Z,10.66
2019-04-01T19:04:34.323Z,10.59
2019-04-01T19:07:05.793Z,10.53
2019-04-01T19:09:37.078Z,10.45
2019-04-01T19:12:08.534Z,10.41
2019-04-01T19:14:40.178Z,10.33
2019-04-01T19:17:11.646Z,10.26
2019-04-01T19:19:43.035Z,10.18
2019-04-01T19:22:15.636Z,10.15
2019-04-01T19:24:47.189Z,10.11
2019-04-01T19:27:20.088Z,10.07
2019-04-01T19:29:51.409Z,10.03
2019-04-01T19:32:27.163Z,9.98
2019-04-01T19:35:00.452Z,9.93
2019-04-01T19:37:34.017Z,9.88
2019-04-01T19:40:07.208Z,9.85
2019-04-01T19:42:39.890Z,9.82
2019-04-01T19:45:12.450Z,9.78
2019-04-01T19:47:47.962Z,9.71
2019-04-01T19:50:20.925Z,9.66
2019-04-01T19:52:55.743Z,9.63
2019-04-01T19:55:27.433Z,9.54
2019-04-01T19:58:04.916Z,9.51
2019-04-01T20:00:35.788Z,9.50
2019-04-01T20:03:10.795Z,9.46
2019-04-01T20:05:43.996Z,9.42
2019-04-01T20:08:16.355Z,9.37
2019-04-01T20:10:49.205Z,9.32
2019-04-01T20:13:24.377Z,9.24
2019-04-01T20:15:56.612Z,9.22
2019-04-01T20:18:30.737Z,9.19
2019-04-01T20:21:05.161Z,9.18
2019-04-01T20:23:40.044Z,9.13
2019-04-01T20:26:11.663Z,9.11
2019-04-01T20:28:43.554Z,9.07
2019-04-01T20:31:17.369Z,9.04
2019-04-01T20:33:51.679Z,8.98
2019-04-01T20:36:28.839Z,8.95
2019-04-01T20:39:00.679Z,8.92
2019-04-01T20:41:33.922Z,8.89
2019-04-01T20:44:06.091Z,8.84
2019-04-01T20:46:39.101Z,8.79
2019-04-01T20:49:10.497Z,8.73
2019-04-01T20:51:41.777Z,8.66
2019-04-01T20:54:13.169Z,8.62
2019-04-01T20:56:44.469Z,8.58
2019-04-01T20:59:17.574Z,8.57
2019-04-01T21:01:50.551Z,8.54
2019-04-01T21:04:22.114Z,8.51
2019-04-01T21:06:55.026Z,8.46
2019-04-01T21:09:26.374Z,8.40
2019-04-01T21:11:57.851Z,8.34
2019-04-01T21:14:29.087Z,8.28
2019-04-01T21:17:00.320Z,8.23
2019-04-01T21:19:33.367Z,8.19
2019-04-01T21:22:04.626Z,8.17
2019-04-01T21:24:35.943Z,8.15
2019-04-01T21:27:10.418Z,8.15
2019-04-01T21:29:44.053Z,8.12
2019-04-01T21:32:20.210Z,8.09
2019-04-01T21:34:51.588Z,8.09
2019-04-01T21:37:22.706Z,8.04
2019-04-01T21:39:53.826Z,8.01
2019-04-01T21:42:24.914Z,7.96
2019-04-01T21:44:56.398Z,7.91
2019-04-01T21:47:27.426Z,7.89
2019-04-01T21:49:58.862Z,7.83
2019-04-01T21:52:30.025Z,7.80
2019-04-01T21:55:01.259Z,7.75
2019-04-01T21:57:35.772Z,7.73
2019-04-01T22:00:10.160Z,7.70
2019-04-01T22:02:43.916Z,7.64
2019-04-01T22:05:15.061Z,7.54
2019-04-01T22:07:46.384Z,7.48
2019-04-01T22:10:17.611Z,7.45
2019-04-01T22:12:52.543Z,7.40
2019-04-01T22:15:23.434Z,7.34
2019-04-01T22:17:54.784Z,7.32
2019-04-01T22:20:25.930Z,7.28
2019-04-01T22:22:57.026Z,7.25
2019-04-01T22:25:29.133Z,7.22
2019-04-01T22:28:02.523Z,7.19
2019-04-01T22:30:33.766Z,7.15
2019-04-01T22:33:04.910Z,7.14
2019-04-01T22:35:39.101Z,7.13
2019-04-01T22:38:09.072Z,7.13
2019-04-01T22:40:40.384Z,7.12
2019-04-01T22:43:11.721Z,7.14
2019-04-01T22:45:42.964Z,7.13
2019-04-01T22:48:17.651Z,7.13
2019-04-01T22:50:49.158Z,7.15
2019-04-01T22:53:20.403Z,7.14
2019-04-01T22:55:51.510Z,7.10
2019-04-01T22:58:22.685Z,7.08
2019-04-01T23:00:53.872Z,7.03
2019-04-01T23:03:25.213Z,7.01
2019-04-01T23:05:56.544Z,6.98
2019-04-01T23:08:27.759Z,6.95
2019-04-01T23:10:58.979Z,6.92
2019-04-01T23:13:30.244Z,6.86
2019-04-01T23:16:01.712Z,6.80
2019-04-01T23:18:32.968Z,6.74
2019-04-01T23:21:04.118Z,6.67
2019-04-01T23:23:36.271Z,6.63
2019-04-01T23:26:07.475Z,6.61
2019-04-01T23:28:38.521Z,6.59
2019-04-01T23:31:09.670Z,6.60
2019-04-01T23:33:40.704Z,6.62
2019-04-01T23:36:12.322Z,6.66
2019-04-01T23:38:44.083Z,6.66
2019-04-01T23:41:15.173Z,6.67
2019-04-01T23:43:46.310Z,6.67
2019-04-01T23:46:18.977Z,6.66
2019-04-01T23:48:50.265Z,6.68
2019-04-01T23:51:21.610Z,6.69
2019-04-01T23:53:52.957Z,6.70
2019-04-01T23:56:24.096Z,6.72
2019-04-01T23:58:56.036Z,6.71
